Kezdőlap
METAR-TAF:

METAR-TAF

Repülőterek :

Lincoln Airport

Lincoln, Nebraska, Amerikai Egyesült Államok

földrajzi szélesség: 40-49-52N, földrajzi hosszúság: 096-45-52W, magasság: 370 m

Jelenlegi meteorológiai megfigyelések

A jelentés 57 perccel ezelõtt készült, 16:54 UTC
Délnyugati szél 5 kt
Hőmérséklet 29°C
Páratartalom 62%
Légköri nyomás 1016 hPa
Látótávolság: 14.5 km
Derült ég

METAR: KLNK 131654Z 22005KT 9SM CLR 29/21 A3001 RMK AO2 SLP148 T02940206

Idő: 12:51 (17:51 UTC)

Előrejelzés

A jelentés 31 perccel ezelõtt készült, 17:20 UTC
Az előrejelzés 13-én 18 óra UTC és 14-én 18 óra UTC között érvényes
Déli szél 12 kt
Látótávolság: 10 km
Kevés felhő 4000 lábon
14-én 0000 órától UTC szerint
Dél-délkeleti szél 8 kt
Látótávolság: 10 km
Szórványos felhőzet 4000 lábon

TAF: KLNK 131720Z 1318/1418 17012KT P6SM FEW040 FM140000 15008KT P6SM SCT040

Meteorológiai megfigyelések és előrejelzések több, mint 4000 repülőtéren (METAR és TAF jelentéseket).

A térképen piros és sárga pontok jelzik az elérhető meteorológiai állomásokat.

Mozgassa az egeret a pont fölött, hogy megjelenjen az állomás neve.

Azután kattintson az időjárási megfigyelések és előrejelzések megtekintéséhez.

A térkép megváltoztatása: kattintson a fekete keresztel jelölt zöld gombra ráközelítéshez, a vonallal jelölt zöld gombra távolításhoz, vagy a zöld nyilakra a szomszédos térképek eléréséhez.


METAR-TAF: